FDA127 RJNS-RJCC
Flight info
| Callsign | FDA127 |
|---|---|
| Flight time | 1h 27m |
| Altitude | 34000 |
| Route | FUJIK SZE CHAUS Y151 MYOGI Y15 HEIKE Y153 YTE Y11 SAMBO Y119 OHMAR Y13 SIRAO Y139 NAVER |
| Aircraft | E75L/M-SDE3GILORVW/S |
Departure
| Time | 2026-04-26 05:09 |
|---|---|
| Airport | Mount Fuji Shizuoka Airport (RJNS) |
Arrival
| Time | 2026-04-26 06:36 |
|---|---|
| Airport | New Chitose Airport (RJCC) |
| Time | Latitude | Longitude | Altitude | Speed | Heading |
|---|---|---|---|---|---|
| 2026-04-26 04:37 | 34.79617 | 138.17896 | 438 ft | 0 kts | 201° |
| 2026-04-26 04:55 | 34.79626 | 138.17900 | 438 ft | 2 kts | 201° |
| 2026-04-26 04:55 | 34.79640 | 138.17908 | 438 ft | 2 kts | 202° |
| 2026-04-26 04:56 | 34.79654 | 138.17914 | 438 ft | 2 kts | 202° |
| 2026-04-26 04:56 | 34.79668 | 138.17921 | 438 ft | 2 kts | 201° |
| 2026-04-26 04:56 | 34.79681 | 138.17928 | 438 ft | 2 kts | 202° |
| 2026-04-26 04:56 | 34.79695 | 138.17934 | 438 ft | 2 kts | 201° |
| 2026-04-26 04:57 | 34.79710 | 138.17941 | 438 ft | 2 kts | 202° |
| 2026-04-26 04:57 | 34.79724 | 138.17947 | 438 ft | 2 kts | 201° |
| 2026-04-26 04:57 | 34.79738 | 138.17955 | 438 ft | 2 kts | 203° |
| 2026-04-26 04:57 | 34.79745 | 138.17967 | 438 ft | 2 kts | 266° |
| 2026-04-26 04:58 | 34.79744 | 138.17976 | 438 ft | 0 kts | 298° |
| 2026-04-26 04:58 | 34.79742 | 138.17982 | 438 ft | 0 kts | 292° |
| 2026-04-26 05:04 | 34.79746 | 138.17969 | 438 ft | 4 kts | 290° |
| 2026-04-26 05:04 | 34.79763 | 138.17917 | 438 ft | 8 kts | 292° |
| 2026-04-26 05:05 | 34.79789 | 138.17837 | 438 ft | 11 kts | 292° |
| 2026-04-26 05:05 | 34.79818 | 138.17747 | 438 ft | 11 kts | 292° |
| 2026-04-26 05:05 | 34.79858 | 138.17658 | 438 ft | 12 kts | 321° |
| 2026-04-26 05:05 | 34.79942 | 138.17658 | 438 ft | 13 kts | 22° |
| 2026-04-26 05:06 | 34.79999 | 138.17735 | 438 ft | 13 kts | 94° |
| 2026-04-26 05:06 | 34.79982 | 138.17799 | 438 ft | 0 kts | 112° |
| 2026-04-26 05:06 | 34.79981 | 138.17802 | 438 ft | 0 kts | 112° |
| 2026-04-26 05:06 | 34.79980 | 138.17804 | 438 ft | 0 kts | 112° |
| 2026-04-26 05:08 | 34.79949 | 138.17899 | 438 ft | 39 kts | 111° |
| 2026-04-26 05:08 | 34.79765 | 138.18451 | 438 ft | 98 kts | 112° |
| 2026-04-26 05:08 | 34.79442 | 138.19415 | 440 ft | 144 kts | 115° |
| 2026-04-26 05:08 | 34.79019 | 138.20546 | 795 ft | 149 kts | 114° |
| 2026-04-26 05:09 | 34.78434 | 138.21611 | 1255 ft | 156 kts | 139° |
| 2026-04-26 05:09 | 34.77596 | 138.22427 | 1843 ft | 158 kts | 141° |
| 2026-04-26 05:09 | 34.76663 | 138.23315 | 2140 ft | 184 kts | 139° |
| 2026-04-26 05:09 | 34.75570 | 138.24347 | 2451 ft | 211 kts | 141° |
| 2026-04-26 05:10 | 34.74370 | 138.25465 | 3019 ft | 225 kts | 141° |
| 2026-04-26 05:10 | 34.73193 | 138.26558 | 3788 ft | 228 kts | 140° |
| 2026-04-26 05:10 | 34.71872 | 138.27780 | 4218 ft | 248 kts | 141° |
| 2026-04-26 05:10 | 34.70452 | 138.29092 | 4729 ft | 264 kts | 141° |
| 2026-04-26 05:11 | 34.68966 | 138.30464 | 5384 ft | 273 kts | 141° |
| 2026-04-26 05:11 | 34.67458 | 138.31854 | 6105 ft | 278 kts | 142° |
| 2026-04-26 05:11 | 34.65899 | 138.33292 | 6911 ft | 280 kts | 143° |
| 2026-04-26 05:11 | 34.64400 | 138.34671 | 7708 ft | 279 kts | 144° |
| 2026-04-26 05:12 | 34.62801 | 138.35986 | 8448 ft | 278 kts | 159° |
| 2026-04-26 05:12 | 34.60924 | 138.36275 | 9074 ft | 278 kts | 189° |
| 2026-04-26 05:12 | 34.59010 | 138.35906 | 9752 ft | 280 kts | 191° |
| 2026-04-26 05:12 | 34.57056 | 138.35504 | 10379 ft | 284 kts | 191° |
| 2026-04-26 05:13 | 34.55077 | 138.35094 | 10928 ft | 290 kts | 191° |
| 2026-04-26 05:13 | 34.53067 | 138.34672 | 11406 ft | 299 kts | 191° |
| 2026-04-26 05:13 | 34.50985 | 138.34470 | 11845 ft | 310 kts | 173° |
| 2026-04-26 05:13 | 34.48938 | 138.35494 | 12268 ft | 326 kts | 144° |
| 2026-04-26 05:14 | 34.47516 | 138.37642 | 12774 ft | 337 kts | 115° |
| 2026-04-26 05:14 | 34.47035 | 138.40440 | 13324 ft | 344 kts | 94° |
| 2026-04-26 05:14 | 34.46829 | 138.43337 | 13883 ft | 347 kts | 98° |
| 2026-04-26 05:14 | 34.46489 | 138.46236 | 14372 ft | 352 kts | 101° |
| 2026-04-26 05:15 | 34.46175 | 138.49184 | 14855 ft | 358 kts | 90° |
| 2026-04-26 05:15 | 34.46415 | 138.51114 | 15156 ft | 363 kts | 72° |
| 2026-04-26 05:15 | 34.47649 | 138.53742 | 15640 ft | 366 kts | 45° |
| 2026-04-26 05:15 | 34.49726 | 138.55519 | 16073 ft | 366 kts | 18° |
| 2026-04-26 05:16 | 34.52196 | 138.56152 | 16559 ft | 363 kts | 3° |
| 2026-04-26 05:16 | 34.54724 | 138.56592 | 17077 ft | 367 kts | 5° |
| 2026-04-26 05:16 | 34.57254 | 138.57094 | 17568 ft | 370 kts | 5° |
| 2026-04-26 05:16 | 34.59802 | 138.57400 | 18005 ft | 367 kts | 349° |
| 2026-04-26 05:17 | 34.62221 | 138.56490 | 18439 ft | 355 kts | 322° |
| 2026-04-26 05:17 | 34.64012 | 138.54526 | 18907 ft | 342 kts | 299° |
| 2026-04-26 05:17 | 34.65257 | 138.52118 | 19527 ft | 337 kts | 295° |
| 2026-04-26 05:17 | 34.66421 | 138.49626 | 20095 ft | 336 kts | 293° |
| 2026-04-26 05:18 | 34.67546 | 138.47122 | 20623 ft | 336 kts | 292° |
| 2026-04-26 05:18 | 34.68660 | 138.44604 | 21217 ft | 334 kts | 292° |
| 2026-04-26 05:18 | 34.69749 | 138.42125 | 21694 ft | 335 kts | 292° |
| 2026-04-26 05:18 | 34.70848 | 138.39613 | 22145 ft | 336 kts | 292° |
| 2026-04-26 05:19 | 34.71944 | 138.37106 | 22663 ft | 336 kts | 292° |
| 2026-04-26 05:19 | 34.72993 | 138.34703 | 23081 ft | 337 kts | 292° |
| 2026-04-26 05:19 | 34.74094 | 138.32184 | 23548 ft | 337 kts | 292° |
| 2026-04-26 05:19 | 34.75204 | 138.29637 | 23961 ft | 338 kts | 291° |
| 2026-04-26 05:20 | 34.76300 | 138.27118 | 24325 ft | 341 kts | 291° |
| 2026-04-26 05:20 | 34.77422 | 138.24542 | 24687 ft | 343 kts | 290° |
| 2026-04-26 05:20 | 34.78548 | 138.21968 | 25094 ft | 345 kts | 292° |
| 2026-04-26 05:20 | 34.80199 | 138.19727 | 25430 ft | 372 kts | 315° |
| 2026-04-26 05:21 | 34.82647 | 138.18425 | 25738 ft | 404 kts | 338° |
| 2026-04-26 05:21 | 34.85474 | 138.17888 | 26015 ft | 411 kts | 339° |
| 2026-04-26 05:21 | 34.88317 | 138.17284 | 26302 ft | 413 kts | 338° |
| 2026-04-26 05:21 | 34.91175 | 138.16634 | 26527 ft | 417 kts | 338° |
| 2026-04-26 05:22 | 34.94003 | 138.15981 | 26897 ft | 417 kts | 337° |
| 2026-04-26 05:22 | 34.96898 | 138.15303 | 27110 ft | 422 kts | 337° |
| 2026-04-26 05:22 | 34.99776 | 138.14630 | 27487 ft | 422 kts | 336° |
| 2026-04-26 05:22 | 35.02703 | 138.13943 | 27766 ft | 424 kts | 336° |
| 2026-04-26 05:23 | 35.05618 | 138.13260 | 28009 ft | 428 kts | 336° |
| 2026-04-26 05:23 | 35.08571 | 138.12567 | 28239 ft | 432 kts | 336° |
| 2026-04-26 05:23 | 35.11533 | 138.11873 | 28506 ft | 434 kts | 335° |
| 2026-04-26 05:23 | 35.14510 | 138.11171 | 28682 ft | 438 kts | 335° |
| 2026-04-26 05:24 | 35.17520 | 138.10465 | 28951 ft | 439 kts | 335° |
| 2026-04-26 05:24 | 35.20540 | 138.09755 | 29304 ft | 438 kts | 335° |
| 2026-04-26 05:24 | 35.23435 | 138.09071 | 29506 ft | 441 kts | 335° |
| 2026-04-26 05:24 | 35.26376 | 138.08379 | 29726 ft | 444 kts | 334° |
| 2026-04-26 05:25 | 35.29384 | 138.07669 | 29992 ft | 445 kts | 334° |
| 2026-04-26 05:25 | 35.32446 | 138.06944 | 30151 ft | 450 kts | 335° |
| 2026-04-26 05:25 | 35.35546 | 138.06212 | 30378 ft | 452 kts | 335° |
| 2026-04-26 05:25 | 35.38651 | 138.05499 | 30626 ft | 458 kts | 338° |
| 2026-04-26 05:26 | 35.41868 | 138.05234 | 30968 ft | 476 kts | 348° |
| 2026-04-26 05:26 | 35.45251 | 138.05597 | 31207 ft | 492 kts | 356° |
| 2026-04-26 05:26 | 35.48649 | 138.06526 | 31395 ft | 510 kts | 6° |
| 2026-04-26 05:26 | 35.51995 | 138.08107 | 31560 ft | 525 kts | 17° |
| 2026-04-26 05:27 | 35.55226 | 138.10349 | 31808 ft | 537 kts | 27° |
| 2026-04-26 05:27 | 35.58292 | 138.12936 | 32084 ft | 535 kts | 24° |
| 2026-04-26 05:27 | 35.61527 | 138.15186 | 32311 ft | 531 kts | 20° |
| 2026-04-26 05:27 | 35.64768 | 138.17305 | 32572 ft | 531 kts | 19° |
| 2026-04-26 05:28 | 35.68035 | 138.19417 | 32898 ft | 530 kts | 19° |
| 2026-04-26 05:28 | 35.71317 | 138.21536 | 33282 ft | 528 kts | 19° |
| 2026-04-26 05:28 | 35.74560 | 138.23630 | 33579 ft | 527 kts | 18° |
| 2026-04-26 05:28 | 35.77840 | 138.25751 | 33960 ft | 526 kts | 18° |
| 2026-04-26 05:29 | 35.81028 | 138.27811 | 34348 ft | 524 kts | 18° |
| 2026-04-26 05:29 | 35.84262 | 138.29904 | 34636 ft | 524 kts | 17° |
| 2026-04-26 05:29 | 35.87505 | 138.32004 | 34999 ft | 522 kts | 17° |
| 2026-04-26 05:29 | 35.90709 | 138.34076 | 35095 ft | 519 kts | 17° |
| 2026-04-26 05:30 | 35.97172 | 138.38257 | 35127 ft | 532 kts | 18° |
| 2026-04-26 05:30 | 36.03811 | 138.42564 | 35128 ft | 543 kts | 17° |
| 2026-04-26 05:31 | 36.10510 | 138.46919 | 35120 ft | 548 kts | 18° |
| 2026-04-26 05:31 | 36.17319 | 138.51353 | 35099 ft | 551 kts | 18° |
| 2026-04-26 05:32 | 36.23839 | 138.56628 | 35106 ft | 567 kts | 32° |
| 2026-04-26 05:32 | 36.29973 | 138.62775 | 35087 ft | 566 kts | 32° |
| 2026-04-26 05:33 | 36.36105 | 138.68906 | 35068 ft | 570 kts | 32° |
| 2026-04-26 05:33 | 36.42302 | 138.75119 | 35072 ft | 567 kts | 31° |
| 2026-04-26 05:34 | 36.48452 | 138.81293 | 35072 ft | 567 kts | 32° |
| 2026-04-26 05:34 | 36.54577 | 138.87457 | 35076 ft | 568 kts | 31° |
| 2026-04-26 05:35 | 36.60726 | 138.93657 | 35071 ft | 565 kts | 31° |
| 2026-04-26 05:35 | 36.66774 | 138.99768 | 35076 ft | 565 kts | 31° |
| 2026-04-26 05:36 | 36.72935 | 139.06006 | 35083 ft | 568 kts | 32° |
| 2026-04-26 05:36 | 36.79077 | 139.12239 | 35086 ft | 567 kts | 31° |
| 2026-04-26 05:37 | 36.85239 | 139.18478 | 35088 ft | 572 kts | 31° |
| 2026-04-26 05:37 | 36.91354 | 139.24669 | 35093 ft | 571 kts | 31° |
| 2026-04-26 05:38 | 36.97541 | 139.30946 | 35102 ft | 569 kts | 30° |
| 2026-04-26 05:38 | 37.03637 | 139.37143 | 35104 ft | 567 kts | 31° |
| 2026-04-26 05:39 | 37.09776 | 139.43398 | 35098 ft | 568 kts | 30° |
| 2026-04-26 05:39 | 37.15950 | 139.49701 | 35091 ft | 568 kts | 30° |
| 2026-04-26 05:40 | 37.21936 | 139.55823 | 35090 ft | 566 kts | 30° |
| 2026-04-26 05:40 | 37.28048 | 139.62088 | 35093 ft | 568 kts | 30° |
| 2026-04-26 05:41 | 37.34179 | 139.68388 | 35063 ft | 567 kts | 31° |
| 2026-04-26 05:41 | 37.40387 | 139.74419 | 35066 ft | 556 kts | 21° |
| 2026-04-26 05:42 | 37.43595 | 139.76656 | 35062 ft | 539 kts | 13° |
| 2026-04-26 05:42 | 37.46948 | 139.78668 | 35061 ft | 537 kts | 13° |
| 2026-04-26 05:42 | 37.53731 | 139.82816 | 35053 ft | 538 kts | 14° |
| 2026-04-26 05:43 | 37.60485 | 139.86966 | 35059 ft | 546 kts | 14° |
| 2026-04-26 05:43 | 37.67218 | 139.91118 | 35054 ft | 542 kts | 13° |
| 2026-04-26 05:44 | 37.73979 | 139.95290 | 35075 ft | 542 kts | 13° |
| 2026-04-26 05:44 | 37.80587 | 139.99381 | 35073 ft | 539 kts | 13° |
| 2026-04-26 05:45 | 37.87326 | 140.03555 | 35075 ft | 543 kts | 13° |
| 2026-04-26 05:45 | 37.93993 | 140.07700 | 35057 ft | 538 kts | 13° |
| 2026-04-26 05:46 | 38.00743 | 140.11900 | 35050 ft | 535 kts | 13° |
| 2026-04-26 05:46 | 38.07429 | 140.16071 | 35060 ft | 533 kts | 13° |
| 2026-04-26 05:47 | 38.14086 | 140.20230 | 35049 ft | 534 kts | 13° |
| 2026-04-26 05:47 | 38.20763 | 140.24414 | 35056 ft | 533 kts | 13° |
| 2026-04-26 05:48 | 38.27404 | 140.28580 | 35048 ft | 533 kts | 13° |
| 2026-04-26 05:48 | 38.34051 | 140.32761 | 35070 ft | 532 kts | 14° |
| 2026-04-26 05:49 | 38.44164 | 140.37521 | 35095 ft | 502 kts | 359° |
| 2026-04-26 05:50 | 38.51020 | 140.39694 | 35092 ft | 506 kts | 0° |
| 2026-04-26 05:50 | 38.57854 | 140.41888 | 35086 ft | 509 kts | 0° |
| 2026-04-26 05:51 | 38.64674 | 140.44090 | 35077 ft | 499 kts | 0° |
| 2026-04-26 05:51 | 38.71459 | 140.46277 | 35074 ft | 502 kts | 1° |
| 2026-04-26 05:52 | 38.78202 | 140.48457 | 35068 ft | 500 kts | 1° |
| 2026-04-26 05:52 | 38.84986 | 140.50658 | 35061 ft | 499 kts | 1° |
| 2026-04-26 05:53 | 38.91742 | 140.52846 | 35091 ft | 506 kts | 2° |
| 2026-04-26 05:53 | 38.98508 | 140.55048 | 35086 ft | 502 kts | 2° |
| 2026-04-26 05:54 | 39.05239 | 140.57245 | 35091 ft | 500 kts | 2° |
| 2026-04-26 05:54 | 39.11984 | 140.59456 | 35088 ft | 500 kts | 2° |
| 2026-04-26 05:55 | 39.18702 | 140.61662 | 35088 ft | 499 kts | 2° |
| 2026-04-26 05:55 | 39.25438 | 140.63876 | 35077 ft | 499 kts | 3° |
| 2026-04-26 05:56 | 39.32175 | 140.66098 | 35066 ft | 496 kts | 4° |
| 2026-04-26 05:56 | 39.38868 | 140.68306 | 35059 ft | 498 kts | 5° |
| 2026-04-26 05:57 | 39.45580 | 140.70531 | 35055 ft | 492 kts | 5° |
| 2026-04-26 05:57 | 39.52201 | 140.72722 | 35054 ft | 495 kts | 6° |
| 2026-04-26 05:58 | 39.58900 | 140.74948 | 35052 ft | 492 kts | 5° |
| 2026-04-26 05:58 | 39.65506 | 140.77147 | 35054 ft | 491 kts | 6° |
| 2026-04-26 05:59 | 39.72169 | 140.79369 | 35054 ft | 495 kts | 6° |
| 2026-04-26 05:59 | 39.78784 | 140.81578 | 35066 ft | 492 kts | 7° |
| 2026-04-26 06:00 | 39.85368 | 140.83783 | 35055 ft | 489 kts | 7° |
| 2026-04-26 06:00 | 39.91936 | 140.85988 | 35051 ft | 484 kts | 7° |
| 2026-04-26 06:01 | 39.98466 | 140.88182 | 35049 ft | 487 kts | 8° |
| 2026-04-26 06:01 | 40.04995 | 140.90382 | 35068 ft | 484 kts | 8° |
| 2026-04-26 06:02 | 40.11572 | 140.92601 | 35053 ft | 486 kts | 8° |
| 2026-04-26 06:02 | 40.18090 | 140.94722 | 35046 ft | 482 kts | 3° |
| 2026-04-26 06:02 | 40.21394 | 140.95171 | 35063 ft | 471 kts | 354° |
| 2026-04-26 06:03 | 40.24684 | 140.95247 | 35061 ft | 473 kts | 354° |
| 2026-04-26 06:03 | 40.31274 | 140.95451 | 35062 ft | 472 kts | 354° |
| 2026-04-26 06:04 | 40.37810 | 140.95665 | 35062 ft | 470 kts | 354° |
| 2026-04-26 06:04 | 40.44368 | 140.95880 | 35049 ft | 470 kts | 354° |
| 2026-04-26 06:05 | 40.50959 | 140.96098 | 35067 ft | 470 kts | 354° |
| 2026-04-26 06:05 | 40.57517 | 140.96315 | 35060 ft | 472 kts | 354° |
| 2026-04-26 06:06 | 40.63931 | 140.96527 | 35059 ft | 473 kts | 354° |
| 2026-04-26 06:06 | 40.70495 | 140.96745 | 35045 ft | 469 kts | 354° |
| 2026-04-26 06:07 | 40.77045 | 140.96962 | 35041 ft | 470 kts | 354° |
| 2026-04-26 06:07 | 40.83584 | 140.97180 | 35045 ft | 469 kts | 354° |
| 2026-04-26 06:08 | 40.90097 | 140.97398 | 35019 ft | 468 kts | 354° |
| 2026-04-26 06:08 | 40.96574 | 140.97613 | 35017 ft | 468 kts | 354° |
| 2026-04-26 06:09 | 41.03070 | 140.97832 | 35025 ft | 466 kts | 354° |
| 2026-04-26 06:09 | 41.09608 | 140.98051 | 35012 ft | 469 kts | 354° |
| 2026-04-26 06:10 | 41.16152 | 140.98270 | 35007 ft | 471 kts | 355° |
| 2026-04-26 06:10 | 41.22673 | 140.98492 | 35004 ft | 464 kts | 354° |
| 2026-04-26 06:11 | 41.29153 | 140.98778 | 35004 ft | 466 kts | 359° |
| 2026-04-26 06:11 | 41.35598 | 141.00963 | 34428 ft | 485 kts | 16° |
| 2026-04-26 06:11 | 41.38717 | 141.02563 | 33904 ft | 480 kts | 15° |
| 2026-04-26 06:12 | 41.41827 | 141.04111 | 33375 ft | 480 kts | 15° |
| 2026-04-26 06:12 | 41.44971 | 141.05664 | 32841 ft | 481 kts | 15° |
| 2026-04-26 06:12 | 41.48094 | 141.07204 | 32318 ft | 484 kts | 15° |
| 2026-04-26 06:12 | 41.51259 | 141.08768 | 31774 ft | 480 kts | 15° |
| 2026-04-26 06:13 | 41.54361 | 141.10301 | 31250 ft | 475 kts | 15° |
| 2026-04-26 06:13 | 41.57475 | 141.11842 | 30722 ft | 471 kts | 15° |
| 2026-04-26 06:13 | 41.60515 | 141.13348 | 30199 ft | 467 kts | 15° |
| 2026-04-26 06:13 | 41.63537 | 141.14847 | 29688 ft | 463 kts | 15° |
| 2026-04-26 06:14 | 41.66537 | 141.16336 | 29183 ft | 459 kts | 15° |
| 2026-04-26 06:14 | 41.69516 | 141.17822 | 28679 ft | 456 kts | 16° |
| 2026-04-26 06:14 | 41.72469 | 141.19315 | 28177 ft | 452 kts | 16° |
| 2026-04-26 06:14 | 41.75434 | 141.20815 | 27675 ft | 449 kts | 16° |
| 2026-04-26 06:15 | 41.78318 | 141.22275 | 27179 ft | 445 kts | 16° |
| 2026-04-26 06:15 | 41.81223 | 141.23746 | 26692 ft | 442 kts | 16° |
| 2026-04-26 06:15 | 41.84064 | 141.25186 | 26211 ft | 438 kts | 16° |
| 2026-04-26 06:15 | 41.86912 | 141.26633 | 25726 ft | 434 kts | 16° |
| 2026-04-26 06:16 | 41.89711 | 141.28053 | 25247 ft | 431 kts | 16° |
| 2026-04-26 06:16 | 41.92520 | 141.29483 | 24775 ft | 428 kts | 17° |
| 2026-04-26 06:16 | 41.95280 | 141.30905 | 24300 ft | 426 kts | 20° |
| 2026-04-26 06:16 | 41.97760 | 141.33110 | 23852 ft | 430 kts | 39° |
| 2026-04-26 06:17 | 41.99950 | 141.35852 | 23353 ft | 429 kts | 41° |
| 2026-04-26 06:17 | 42.02118 | 141.38619 | 22872 ft | 425 kts | 41° |
| 2026-04-26 06:17 | 42.04241 | 141.41339 | 22398 ft | 420 kts | 41° |
| 2026-04-26 06:17 | 42.06337 | 141.44029 | 21944 ft | 416 kts | 41° |
| 2026-04-26 06:18 | 42.08438 | 141.46730 | 21486 ft | 414 kts | 41° |
| 2026-04-26 06:18 | 42.10509 | 141.49396 | 21029 ft | 410 kts | 41° |
| 2026-04-26 06:18 | 42.12581 | 141.52000 | 20556 ft | 406 kts | 35° |
| 2026-04-26 06:18 | 42.14962 | 141.53989 | 20135 ft | 400 kts | 25° |
| 2026-04-26 06:19 | 42.17295 | 141.55731 | 19722 ft | 398 kts | 25° |
| 2026-04-26 06:19 | 42.19719 | 141.57538 | 19277 ft | 395 kts | 25° |
| 2026-04-26 06:19 | 42.22125 | 141.59328 | 18827 ft | 392 kts | 25° |
| 2026-04-26 06:19 | 42.24492 | 141.61092 | 18391 ft | 389 kts | 25° |
| 2026-04-26 06:20 | 42.26839 | 141.62842 | 17984 ft | 386 kts | 25° |
| 2026-04-26 06:20 | 42.29176 | 141.64586 | 17570 ft | 384 kts | 25° |
| 2026-04-26 06:20 | 42.31528 | 141.66341 | 17126 ft | 382 kts | 26° |
| 2026-04-26 06:20 | 42.33841 | 141.68069 | 16701 ft | 379 kts | 26° |
| 2026-04-26 06:21 | 42.36123 | 141.69777 | 16268 ft | 376 kts | 26° |
| 2026-04-26 06:21 | 42.38400 | 141.71481 | 15842 ft | 373 kts | 26° |
| 2026-04-26 06:21 | 42.40670 | 141.73183 | 15454 ft | 372 kts | 26° |
| 2026-04-26 06:21 | 42.42919 | 141.74869 | 15060 ft | 369 kts | 26° |
| 2026-04-26 06:22 | 42.45145 | 141.76540 | 14642 ft | 366 kts | 26° |
| 2026-04-26 06:22 | 42.47364 | 141.78206 | 14232 ft | 363 kts | 25° |
| 2026-04-26 06:22 | 42.49572 | 141.79866 | 13868 ft | 360 kts | 25° |
| 2026-04-26 06:22 | 42.51756 | 141.81509 | 13483 ft | 360 kts | 25° |
| 2026-04-26 06:23 | 42.53953 | 141.83164 | 13101 ft | 357 kts | 25° |
| 2026-04-26 06:23 | 42.56107 | 141.84787 | 12723 ft | 357 kts | 25° |
| 2026-04-26 06:23 | 42.58315 | 141.86246 | 12288 ft | 347 kts | 11° |
| 2026-04-26 06:23 | 42.60669 | 141.86525 | 11950 ft | 336 kts | 353° |
| 2026-04-26 06:24 | 42.62994 | 141.86357 | 11562 ft | 331 kts | 351° |
| 2026-04-26 06:24 | 42.65268 | 141.86159 | 11180 ft | 323 kts | 351° |
| 2026-04-26 06:24 | 42.67497 | 141.85953 | 10810 ft | 313 kts | 351° |
| 2026-04-26 06:24 | 42.69622 | 141.85753 | 10480 ft | 305 kts | 351° |
| 2026-04-26 06:25 | 42.71725 | 141.85553 | 10142 ft | 297 kts | 350° |
| 2026-04-26 06:25 | 42.73753 | 141.85358 | 9823 ft | 290 kts | 350° |
| 2026-04-26 06:25 | 42.75791 | 141.85161 | 9502 ft | 287 kts | 350° |
| 2026-04-26 06:25 | 42.77766 | 141.84970 | 9189 ft | 288 kts | 350° |
| 2026-04-26 06:26 | 42.79787 | 141.84775 | 8693 ft | 293 kts | 350° |
| 2026-04-26 06:26 | 42.81826 | 141.84570 | 8254 ft | 287 kts | 347° |
| 2026-04-26 06:26 | 42.83744 | 141.84047 | 7940 ft | 278 kts | 341° |
| 2026-04-26 06:26 | 42.85663 | 141.83440 | 7623 ft | 280 kts | 341° |
| 2026-04-26 06:27 | 42.87587 | 141.82832 | 7310 ft | 281 kts | 340° |
| 2026-04-26 06:27 | 42.89490 | 141.82230 | 6995 ft | 280 kts | 340° |
| 2026-04-26 06:27 | 42.91398 | 141.81627 | 6678 ft | 280 kts | 340° |
| 2026-04-26 06:27 | 42.93288 | 141.81027 | 6356 ft | 280 kts | 341° |
| 2026-04-26 06:28 | 42.95193 | 141.80425 | 6049 ft | 278 kts | 341° |
| 2026-04-26 06:28 | 42.97070 | 141.79828 | 5745 ft | 278 kts | 341° |
| 2026-04-26 06:28 | 42.99009 | 141.79213 | 5430 ft | 279 kts | 341° |
| 2026-04-26 06:28 | 43.00748 | 141.78220 | 5128 ft | 268 kts | 319° |
| 2026-04-26 06:29 | 43.02219 | 141.76653 | 4837 ft | 267 kts | 317° |
| 2026-04-26 06:29 | 43.03366 | 141.74986 | 4553 ft | 259 kts | 292° |
| 2026-04-26 06:29 | 43.03656 | 141.72633 | 4304 ft | 237 kts | 258° |
| 2026-04-26 06:29 | 43.02991 | 141.70618 | 3854 ft | 232 kts | 235° |
| 2026-04-26 06:30 | 43.02081 | 141.68826 | 3538 ft | 227 kts | 232° |
| 2026-04-26 06:30 | 43.01146 | 141.67122 | 3271 ft | 220 kts | 231° |
| 2026-04-26 06:30 | 43.00073 | 141.65665 | 3013 ft | 210 kts | 204° |
| 2026-04-26 06:30 | 42.98663 | 141.65419 | 2841 ft | 203 kts | 178° |
| 2026-04-26 06:31 | 42.97287 | 141.65579 | 2620 ft | 203 kts | 177° |
| 2026-04-26 06:31 | 42.96108 | 141.65762 | 2426 ft | 204 kts | 175° |
| 2026-04-26 06:31 | 42.94704 | 141.66010 | 2191 ft | 205 kts | 174° |
| 2026-04-26 06:31 | 42.93261 | 141.66266 | 2016 ft | 201 kts | 174° |
| 2026-04-26 06:32 | 42.91924 | 141.66502 | 2019 ft | 184 kts | 174° |
| 2026-04-26 06:32 | 42.90709 | 141.66717 | 1978 ft | 169 kts | 174° |
| 2026-04-26 06:32 | 42.89570 | 141.66919 | 2011 ft | 151 kts | 175° |
| 2026-04-26 06:32 | 42.88617 | 141.67090 | 1964 ft | 129 kts | 175° |
| 2026-04-26 06:33 | 42.87743 | 141.67242 | 1827 ft | 123 kts | 175° |
| 2026-04-26 06:33 | 42.86890 | 141.67394 | 1682 ft | 123 kts | 175° |
| 2026-04-26 06:33 | 42.86021 | 141.67546 | 1523 ft | 125 kts | 174° |
| 2026-04-26 06:33 | 42.85156 | 141.67699 | 1360 ft | 124 kts | 174° |
| 2026-04-26 06:34 | 42.84296 | 141.67850 | 1189 ft | 125 kts | 173° |
| 2026-04-26 06:34 | 42.83417 | 141.68005 | 1015 ft | 124 kts | 173° |
| 2026-04-26 06:34 | 42.82550 | 141.68158 | 844 ft | 123 kts | 172° |
| 2026-04-26 06:34 | 42.81696 | 141.68309 | 681 ft | 122 kts | 172° |
| 2026-04-26 06:35 | 42.80844 | 141.68455 | 511 ft | 122 kts | 173° |
| 2026-04-26 06:35 | 42.79986 | 141.68584 | 358 ft | 122 kts | 173° |
| 2026-04-26 06:35 | 42.79132 | 141.68742 | 204 ft | 123 kts | 172° |
| 2026-04-26 06:35 | 42.78290 | 141.68893 | 94 ft | 115 kts | 174° |
| 2026-04-26 06:36 | 42.77570 | 141.69022 | 78 ft | 91 kts | 169° |
| 2026-04-26 06:36 | 42.77078 | 141.69121 | 75 ft | 43 kts | 172° |
| 2026-04-26 06:36 | 42.76932 | 141.69136 | 77 ft | 13 kts | 184° |
| 2026-04-26 06:36 | 42.76821 | 141.69113 | 79 ft | 17 kts | 195° |
| 2026-04-26 06:37 | 42.76708 | 141.69041 | 79 ft | 18 kts | 238° |
| 2026-04-26 06:37 | 42.76781 | 141.68945 | 79 ft | 18 kts | 352° |
| 2026-04-26 06:37 | 42.76910 | 141.68924 | 78 ft | 19 kts | 353° |
| 2026-04-26 06:37 | 42.77052 | 141.68896 | 77 ft | 21 kts | 353° |
| 2026-04-26 06:38 | 42.77209 | 141.68870 | 74 ft | 26 kts | 353° |
| 2026-04-26 06:38 | 42.77503 | 141.68820 | 80 ft | 62 kts | 353° |
| 2026-04-26 06:38 | 42.77704 | 141.68784 | 83 ft | 14 kts | 353° |
| 2026-04-26 06:38 | 42.77817 | 141.68764 | 81 ft | 17 kts | 352° |
| 2026-04-26 06:39 | 42.77948 | 141.68732 | 78 ft | 20 kts | 327° |
| 2026-04-26 06:39 | 42.78041 | 141.68581 | 77 ft | 21 kts | 318° |
| 2026-04-26 06:39 | 42.78162 | 141.68451 | 77 ft | 23 kts | 323° |
| 2026-04-26 06:39 | 42.78281 | 141.68314 | 86 ft | 19 kts | 311° |
| 2026-04-26 06:40 | 42.78374 | 141.68230 | 96 ft | 13 kts | 332° |
| 2026-04-26 06:40 | 42.78439 | 141.68161 | 99 ft | 12 kts | 320° |
| 2026-04-26 06:40 | 42.78492 | 141.68108 | 97 ft | 0 kts | 324° |